Time;durP1;ratioP1;P1;durP2;ratioP2;P2;SDS_P1;SDS_P2;PMS_P1;PMS_P2;Temp;Humidity;BMP_temperature;BMP_pressure;BME280_temperature;BME280_humidity;BME280_pressure;Samples;Min_cycle;Max_cycle;Signal;HPM_P1;HPM_P2
2021/04/20 00:02:15;;;;;;;133.73;54.93;;;6.40;99.90;;;;;;5032203;28;20199;-63
2021/04/20 00:04:40;;;;;;;136.17;56.67;;;6.40;99.90;;;;;;5033527;28;20229;-63
2021/04/20 00:07:07;;;;;;;134.50;55.50;;;6.30;99.90;;;;;;5033362;28;20250;-64
2021/04/20 00:09:33;;;;;;;148.73;55.90;;;6.30;99.90;;;;;;5033242;28;20176;-63
2021/04/20 00:11:58;;;;;;;155.43;58.97;;;6.30;99.90;;;;;;5032991;28;20226;-63
2021/04/20 00:14:24;;;;;;;152.00;58.00;;;6.20;99.90;;;;;;5033209;28;20191;-63
2021/04/20 00:16:50;;;;;;;145.27;58.63;;;6.20;99.90;;;;;;5033395;28;20182;-63
2021/04/20 00:19:16;;;;;;;140.93;58.17;;;6.20;99.90;;;;;;5032880;28;20589;-63
2021/04/20 00:21:41;;;;;;;140.37;56.33;;;6.20;99.90;;;;;;5031843;28;20245;-63
2021/04/20 00:24:07;;;;;;;142.77;55.70;;;6.10;99.90;;;;;;5032668;28;20210;-63
2021/04/20 00:26:33;;;;;;;146.97;54.20;;;6.10;99.90;;;;;;5033032;28;20231;-63
2021/04/20 00:28:59;;;;;;;145.87;53.83;;;6.00;99.90;;;;;;5032514;28;20211;-63
2021/04/20 00:31:24;;;;;;;131.40;55.00;;;6.00;99.90;;;;;;5032333;28;20254;-63
2021/04/20 00:33:50;;;;;;;153.13;54.93;;;6.00;99.90;;;;;;5032824;28;20176;-63
2021/04/20 00:36:15;;;;;;;140.07;53.23;;;5.90;99.90;;;;;;5032533;28;20186;-64
2021/04/20 00:38:41;;;;;;;143.37;54.70;;;5.90;99.90;;;;;;5032774;28;20254;-64
2021/04/20 00:41:12;;;;;;;136.10;53.37;;;5.90;99.90;;;;;;5031060;28;20234;-63
2021/04/20 00:43:43;;;;;;;167.67;57.80;;;5.80;99.90;;;;;;5032687;28;20633;-64
2021/04/20 00:46:17;;;;;;;155.50;56.37;;;5.80;99.90;;;;;;5032337;28;20591;-63
2021/04/20 00:48:43;;;;;;;144.90;52.80;;;5.80;99.90;;;;;;5032542;28;20254;-63
2021/04/20 00:51:10;;;;;;;157.20;54.77;;;5.80;99.90;;;;;;5031191;28;20218;-64
2021/04/20 00:53:37;;;;;;;145.80;51.40;;;5.70;99.90;;;;;;5032789;28;20179;-64
2021/04/20 00:56:03;;;;;;;139.43;51.87;;;5.70;99.90;;;;;;5032481;28;20270;-63
2021/04/20 00:58:29;;;;;;;140.10;55.23;;;5.60;99.90;;;;;;5032754;28;20184;-63
2021/04/20 01:00:56;;;;;;;141.13;52.67;;;5.60;99.90;;;;;;5030945;28;20211;-63
2021/04/20 01:03:21;;;;;;;142.03;53.07;;;5.60;99.90;;;;;;5031996;28;20229;-63
2021/04/20 01:05:47;;;;;;;159.13;54.63;;;5.60;99.90;;;;;;5032050;28;20183;-63
2021/04/20 01:08:16;;;;;;;152.93;54.60;;;5.50;99.90;;;;;;5032210;28;20581;-63
2021/04/20 01:10:46;;;;;;;149.47;55.20;;;5.50;99.90;;;;;;5031107;28;20241;-63
2021/04/20 01:13:13;;;;;;;173.17;59.20;;;5.50;99.90;;;;;;5031683;28;20156;-63
2021/04/20 01:15:43;;;;;;;182.00;63.03;;;5.40;99.90;;;;;;5031696;28;20245;-63
2021/04/20 01:18:09;;;;;;;185.07;63.27;;;5.40;99.90;;;;;;5032064;28;20179;-63
2021/04/20 01:20:36;;;;;;;163.07;58.07;;;5.30;99.90;;;;;;5030823;28;20556;-63
2021/04/20 01:23:02;;;;;;;176.97;53.97;;;5.40;99.90;;;;;;5031379;28;20183;-63
2021/04/20 01:25:28;;;;;;;166.73;57.17;;;5.40;99.90;;;;;;5031602;28;20187;-63
2021/04/20 01:27:54;;;;;;;172.40;58.93;;;5.40;99.90;;;;;;5031966;28;20221;-63
2021/04/20 01:30:21;;;;;;;194.70;63.10;;;5.40;99.90;;;;;;5031124;28;20192;-63
2021/04/20 01:32:46;;;;;;;192.30;64.23;;;5.40;99.90;;;;;;5031951;28;20187;-63
2021/04/20 01:35:13;;;;;;;197.27;63.90;;;5.40;99.90;;;;;;5031656;28;20641;-63
2021/04/20 01:37:40;;;;;;;191.80;61.03;;;5.40;99.90;;;;;;5031481;28;20187;-63
2021/04/20 01:40:06;;;;;;;186.07;61.13;;;5.40;99.90;;;;;;5030626;28;20746;-63
2021/04/20 01:42:33;;;;;;;183.47;60.43;;;5.30;99.90;;;;;;5030443;28;20198;-63
2021/04/20 01:44:58;;;;;;;174.40;55.20;;;5.30;99.90;;;;;;5031067;28;20623;-63
2021/04/20 01:47:24;;;;;;;186.20;63.97;;;5.30;99.90;;;;;;5031332;28;20281;-64
2021/04/20 01:49:50;;;;;;;198.00;60.77;;;5.30;99.90;;;;;;5029431;28;20183;-63
2021/04/20 01:52:16;;;;;;;197.47;62.90;;;5.20;99.90;;;;;;5031308;28;20574;-66
2021/04/20 01:54:42;;;;;;;225.50;68.37;;;5.30;99.90;;;;;;5031206;28;20267;-63
2021/04/20 01:57:10;;;;;;;242.77;68.73;;;5.20;99.90;;;;;;5030960;28;20250;-63
2021/04/20 01:59:36;;;;;;;241.93;72.80;;;5.20;99.90;;;;;;5031220;28;20195;-63
2021/04/20 02:02:02;;;;;;;223.80;69.47;;;5.20;99.90;;;;;;5030484;28;20787;-64
2021/04/20 02:04:28;;;;;;;220.67;66.77;;;5.20;99.90;;;;;;5038600;28;20180;-67
2021/04/20 02:06:54;;;;;;;208.50;64.70;;;;;;;;;;5040116;28;20254;-67
2021/04/20 02:09:20;;;;;;;193.83;64.90;;;5.30;99.90;;;;;;5038219;28;20176;-69
2021/04/20 02:11:46;;;;;;;176.67;58.43;;;5.30;99.90;;;;;;5037760;28;20258;-67
2021/04/20 02:14:12;;;;;;;168.53;57.77;;;5.30;99.90;;;;;;5037610;28;20179;-69
2021/04/20 02:16:40;;;;;;;182.37;56.63;;;5.20;99.90;;;;;;5038410;28;20291;-70
2021/04/20 02:19:09;;;;;;;180.90;57.50;;;5.20;99.90;;;;;;5037442;28;20217;-66
2021/04/20 02:21:36;;;;;;;169.87;56.93;;;5.20;99.90;;;;;;5036537;28;20290;-68
2021/04/20 02:24:02;;;;;;;172.53;57.00;;;5.10;99.90;;;;;;5037623;28;20684;-68
2021/04/20 02:26:31;;;;;;;176.70;57.97;;;5.10;99.90;;;;;;5032547;28;20183;-64
2021/04/20 02:29:00;;;;;;;175.93;58.90;;;5.10;99.90;;;;;;5031971;28;20534;-64
2021/04/20 02:31:26;;;;;;;189.40;57.63;;;5.00;99.90;;;;;;5030740;28;20214;-64
2021/04/20 02:33:55;;;;;;;180.70;59.43;;;5.00;99.90;;;;;;5031728;28;20176;-64
2021/04/20 02:36:22;;;;;;;168.10;57.23;;;4.90;99.90;;;;;;5029721;28;20180;-64
2021/04/20 02:38:48;;;;;;;172.53;55.43;;;4.90;99.90;;;;;;5031551;28;20175;-64
2021/04/20 02:41:16;;;;;;;182.77;56.10;;;4.80;99.90;;;;;;5030672;28;20574;-64
2021/04/20 02:43:43;;;;;;;175.77;53.70;;;4.80;99.90;;;;;;5031399;28;20258;-64
2021/04/20 02:46:10;;;;;;;182.10;58.67;;;4.70;99.90;;;;;;5029815;28;20188;-64
2021/04/20 02:48:36;;;;;;;195.80;61.47;;;4.70;99.90;;;;;;5030451;28;20224;-64
2021/04/20 02:51:04;;;;;;;210.90;63.73;;;4.70;99.90;;;;;;5031898;28;20285;-64
2021/04/20 02:53:31;;;;;;;194.50;60.30;;;4.70;99.90;;;;;;5035475;28;20651;-64
2021/04/20 02:55:57;;;;;;;177.90;57.97;;;4.60;99.90;;;;;;5033519;28;20194;-65
2021/04/20 02:58:26;;;;;;;196.73;61.13;;;4.60;99.90;;;;;;5035163;28;20207;-64
2021/04/20 03:01:00;;;;;;;171.77;59.53;;;4.60;99.90;;;;;;5034357;28;20699;-64
2021/04/20 03:03:27;;;;;;;202.17;61.60;;;4.60;99.90;;;;;;5033933;28;20180;-65
2021/04/20 03:05:53;;;;;;;207.67;64.77;;;4.50;99.90;;;;;;5034839;28;20180;-64
2021/04/20 03:08:19;;;;;;;195.10;61.20;;;4.50;99.90;;;;;;5034996;28;20211;-64
2021/04/20 03:10:45;;;;;;;228.97;66.03;;;4.50;99.90;;;;;;5034867;28;20696;-64
2021/04/20 03:13:12;;;;;;;212.37;63.53;;;4.50;99.90;;;;;;5033511;28;20706;-66
2021/04/20 03:15:38;;;;;;;217.43;65.40;;;4.50;99.90;;;;;;5034665;28;20267;-65
2021/04/20 03:18:04;;;;;;;221.03;68.83;;;4.50;99.90;;;;;;5033503;28;20664;-64
2021/04/20 03:20:30;;;;;;;239.40;66.37;;;4.50;99.90;;;;;;5034232;28;20238;-65
2021/04/20 03:22:57;;;;;;;201.77;65.03;;;4.50;99.90;;;;;;5042165;22;20255;-67
2021/04/20 03:25:28;;;;;;;203.57;62.00;;;4.50;99.90;;;;;;5026191;28;20222;-69
2021/04/20 03:27:57;;;;;;;217.87;63.50;;;4.50;99.90;;;;;;5036526;28;20238;-72
2021/04/20 03:30:30;;;;;;;226.80;68.03;;;4.50;99.90;;;;;;5026322;28;20187;-69
2021/04/20 03:33:26;;;;;;;214.80;62.80;;;4.50;99.90;;;;;;5016405;28;20192;-72
2021/04/20 03:36:04;;;;;;;225.03;63.20;;;4.50;99.90;;;;;;5015962;28;20275;-73
2021/04/20 03:38:44;;;;;;;212.00;67.07;;;4.50;99.90;;;;;;5016126;28;20175;-72
2021/04/20 03:41:22;;;;;;;232.93;66.60;;;4.50;99.90;;;;;;5015303;28;20294;-73
2021/04/20 03:43:51;;;;;;;219.77;63.70;;;4.50;99.90;;;;;;5016350;28;20184;-70
2021/04/20 03:46:20;;;;;;;249.20;66.07;;;4.50;99.90;;;;;;5015720;28;20523;-67
2021/04/20 03:49:04;;;;;;;223.70;63.10;;;4.50;99.90;;;;;;5016067;28;20200;-71
2021/04/20 03:51:31;;;;;;;222.93;61.87;;;4.40;99.90;;;;;;5015801;28;20656;-70
2021/04/20 03:54:05;;;;;;;214.73;62.63;;;4.40;99.90;;;;;;5016393;28;20669;-71
2021/04/20 03:56:32;;;;;;;208.27;58.77;;;4.40;99.90;;;;;;5016119;28;20168;-71
2021/04/20 03:59:01;;;;;;;220.93;60.70;;;4.40;99.90;;;;;;5014336;28;20177;-66
2021/04/20 04:01:32;;;;;;;235.50;64.80;;;4.30;99.90;;;;;;5012946;28;20200;-67
2021/04/20 04:03:58;;;;;;;221.77;63.43;;;4.20;99.90;;;;;;5013574;28;20200;-67
2021/04/20 04:06:24;;;;;;;232.60;64.10;;;4.30;99.90;;;;;;5013805;28;20176;-66
2021/04/20 04:08:51;;;;;;;202.87;61.40;;;4.30;99.90;;;;;;5013491;28;20172;-66
2021/04/20 04:11:20;;;;;;;211.63;60.10;;;4.20;99.90;;;;;;5013189;28;20172;-66
2021/04/20 04:13:48;;;;;;;184.57;56.60;;;4.20;99.90;;;;;;5013481;28;20199;-66
2021/04/20 04:16:17;;;;;;;210.77;58.43;;;4.20;99.90;;;;;;5013617;28;20202;-66
2021/04/20 04:18:52;;;;;;;196.97;58.27;;;4.20;99.90;;;;;;5013307;28;20188;-66
2021/04/20 04:21:23;;;;;;;204.60;58.63;;;4.10;99.90;;;;;;5013164;28;20294;-66
2021/04/20 04:23:54;;;;;;;208.97;59.00;;;4.10;99.90;;;;;;5013108;28;20204;-67
2021/04/20 04:26:25;;;;;;;218.70;60.57;;;4.20;99.90;;;;;;5013255;28;20200;-66
2021/04/20 04:28:55;;;;;;;201.50;58.90;;;4.20;99.90;;;;;;5012301;28;20172;-67
2021/04/20 04:31:21;;;;;;;200.23;57.57;;;4.20;99.90;;;;;;5012721;28;20257;-67
2021/04/20 04:33:48;;;;;;;219.87;61.50;;;4.20;99.90;;;;;;5012973;28;20574;-67
2021/04/20 04:36:15;;;;;;;205.50;58.07;;;4.20;99.90;;;;;;5013023;28;20184;-67
2021/04/20 04:38:42;;;;;;;189.33;57.37;;;4.20;99.90;;;;;;5012799;28;20226;-67
2021/04/20 04:41:08;;;;;;;201.87;60.70;;;4.20;99.90;;;;;;5012273;28;20208;-66
2021/04/20 04:43:35;;;;;;;205.10;57.23;;;4.20;99.90;;;;;;5012998;28;20684;-67
2021/04/20 04:46:01;;;;;;;203.63;56.47;;;4.20;99.90;;;;;;5012538;28;20259;-67
2021/04/20 04:48:27;;;;;;;185.07;56.37;;;4.30;99.90;;;;;;5013033;28;20255;-65
2021/04/20 04:50:54;;;;;;;149.20;50.13;;;4.30;99.90;;;;;;5012432;28;20242;-64
2021/04/20 04:53:22;;;;;;;151.63;51.30;;;4.30;99.90;;;;;;5012776;28;20662;-65
2021/04/20 04:55:48;;;;;;;168.10;54.00;;;4.30;99.90;;;;;;5012591;28;20180;-64
2021/04/20 04:58:16;;;;;;;181.53;54.67;;;4.30;99.90;;;;;;5012793;28;20183;-64
2021/04/20 05:00:43;;;;;;;189.20;54.37;;;4.30;99.90;;;;;;5012177;28;20211;-64
2021/04/20 05:03:09;;;;;;;178.47;55.33;;;4.30;99.90;;;;;;5012672;28;20565;-64
2021/04/20 05:05:37;;;;;;;187.37;55.57;;;4.40;99.90;;;;;;5012632;28;20180;-64
2021/04/20 05:08:03;;;;;;;189.40;58.37;;;4.40;99.90;;;;;;5012640;28;20172;-65
2021/04/20 05:10:28;;;;;;;175.90;56.10;;;4.50;99.90;;;;;;5011914;28;20183;-64
2021/04/20 05:12:55;;;;;;;171.40;54.63;;;4.60;99.90;;;;;;5011973;28;20288;-65
2021/04/20 05:15:23;;;;;;;187.80;54.33;;;4.70;99.90;;;;;;5011738;28;20180;-65
2021/04/20 05:17:49;;;;;;;188.40;54.57;;;4.80;99.90;;;;;;5012595;28;20172;-64
2021/04/20 05:20:20;;;;;;;185.53;56.03;;;4.90;99.90;;;;;;5011817;28;20192;-65
2021/04/20 05:22:47;;;;;;;187.10;57.37;;;5.00;99.90;;;;;;5012289;28;20581;-65
2021/04/20 05:25:15;;;;;;;180.60;55.83;;;5.10;99.90;;;;;;5012019;28;20172;-64
2021/04/20 05:27:41;;;;;;;176.80;53.70;;;5.20;99.90;;;;;;5011587;28;20168;-65
2021/04/20 05:30:08;;;;;;;156.60;51.03;;;5.30;99.90;;;;;;5011784;28;20172;-64
2021/04/20 05:32:38;;;;;;;178.50;55.93;;;5.40;99.90;;;;;;5012188;28;20192;-65
2021/04/20 05:35:05;;;;;;;146.70;49.10;;;5.50;99.90;;;;;;5011937;28;20199;-64
2021/04/20 05:37:37;;;;;;;152.67;49.77;;;5.60;99.90;;;;;;5011752;28;20187;-67
2021/04/20 05:40:11;;;;;;;136.00;46.57;;;5.70;99.90;;;;;;5010947;28;20677;-65
2021/04/20 05:42:37;;;;;;;131.67;45.80;;;5.80;99.90;;;;;;5010582;28;20576;-65
2021/04/20 05:45:06;;;;;;;133.73;46.73;;;5.90;99.90;;;;;;5012112;28;20244;-65
2021/04/20 05:47:31;;;;;;;168.20;55.30;;;6.00;99.90;;;;;;5011548;28;20573;-64
2021/04/20 05:50:02;;;;;;;159.03;52.70;;;6.10;99.90;;;;;;5010901;28;20176;-64
2021/04/20 05:52:32;;;;;;;129.27;48.33;;;6.20;99.90;;;;;;4996820;28;20196;-67
2021/04/20 05:54:58;;;;;;;144.70;50.07;;;6.20;99.90;;;;;;5011945;28;20207;-67
2021/04/20 05:57:24;;;;;;;142.27;51.30;;;6.30;99.90;;;;;;5011592;28;20220;-67
2021/04/20 05:59:55;;;;;;;133.60;52.27;;;6.60;99.90;;;;;;5011596;28;20199;-67
2021/04/20 06:02:22;;;;;;;134.80;50.37;;;6.90;99.90;;;;;;5011522;28;20196;-67
2021/04/20 06:04:52;;;;;;;127.27;48.87;;;7.10;99.90;;;;;;5011730;28;20626;-67
2021/04/20 06:07:20;;;;;;;119.57;50.57;;;7.30;99.90;;;;;;5006614;28;20183;-67
2021/04/20 06:09:46;;;;;;;112.13;48.17;;;7.50;99.90;;;;;;5010077;28;20179;-65
2021/04/20 06:12:13;;;;;;;114.77;46.73;;;7.70;99.90;;;;;;5011458;28;20183;-67
2021/04/20 06:14:40;;;;;;;110.20;48.20;;;7.90;99.90;;;;;;4992460;28;20176;-66
2021/04/20 06:17:11;;;;;;;117.03;51.47;;;8.10;99.90;;;;;;4992231;28;20200;-67
2021/04/20 06:19:38;;;;;;;104.53;47.47;;;8.20;99.90;;;;;;4991822;28;20169;-67
2021/04/20 06:22:05;;;;;;;105.87;49.03;;;8.40;99.90;;;;;;5003042;28;20616;-65
2021/04/20 06:24:31;;;;;;;117.20;52.40;;;8.50;99.90;;;;;;5011714;28;20262;-65
2021/04/20 06:26:58;;;;;;;104.80;48.50;;;8.60;99.90;;;;;;5015165;28;20695;-65
2021/04/20 06:29:26;;;;;;;111.63;50.07;;;8.80;99.90;;;;;;5015095;28;20199;-65
2021/04/20 06:31:53;;;;;;;104.03;52.17;;;9.00;99.90;;;;;;5014041;28;20645;-65
2021/04/20 06:34:19;;;;;;;101.60;50.33;;;9.10;99.90;;;;;;5015251;28;20239;-65
2021/04/20 06:36:45;;;;;;;94.60;48.10;;;9.40;99.90;;;;;;5014836;28;20180;-65
2021/04/20 06:39:11;;;;;;;91.17;47.10;;;9.60;99.90;;;;;;5015032;28;20195;-65
2021/04/20 06:41:39;;;;;;;83.57;46.97;;;9.80;99.90;;;;;;5014633;28;20317;-67
2021/04/20 06:44:28;;;;;;;72.50;41.40;;;10.00;99.90;;;;;;5014774;28;20405;-67
2021/04/20 06:47:14;;;;;;;66.67;42.87;;;10.30;99.90;;;;;;5014936;28;20231;-64
2021/04/20 06:49:44;;;;;;;58.93;37.07;;;10.60;99.90;;;;;;5014965;28;20663;-65
2021/04/20 06:52:21;;;;;;;52.53;35.17;;;10.70;99.90;;;;;;5014740;28;20176;-65
2021/04/20 06:55:03;;;;;;;52.00;34.43;;;10.80;99.90;;;;;;5014924;28;20176;-65
2021/04/20 06:57:55;;;;;;;48.40;32.10;;;10.90;99.90;;;;;;5014940;28;20521;-65
2021/04/20 07:00:25;;;;;;;48.03;30.00;;;11.10;99.90;;;;;;5014180;28;20215;-65
2021/04/20 07:02:59;;;;;;;45.43;30.40;;;11.20;99.90;;;;;;5014890;28;20195;-65
2021/04/20 07:06:07;;;;;;;41.80;28.77;;;11.40;99.90;;;;;;5014712;28;20199;-65
2021/04/20 07:08:51;;;;;;;37.03;27.37;;;11.70;99.90;;;;;;5007559;28;20192;-65
2021/04/20 07:11:17;;;;;;;31.20;24.47;;;12.00;99.90;;;;;;5014118;28;20184;-65
2021/04/20 07:13:49;;;;;;;35.43;24.27;;;12.50;99.90;;;;;;5014661;28;20306;-65
2021/04/20 07:16:34;;;;;;;31.47;22.70;;;12.90;99.90;;;;;;5014355;28;20188;-65
2021/04/20 07:19:51;;;;;;;33.03;23.33;;;13.40;99.90;;;;;;5014620;28;20168;-65
2021/04/20 07:22:23;;;;;;;31.20;23.27;;;13.80;99.90;;;;;;4971985;28;21527;-66
2021/04/20 07:25:09;;;;;;;31.10;22.03;;;14.30;99.90;;;;;;4998040;28;20184;-65
2021/04/20 07:27:52;;;;;;;28.93;22.33;;;14.70;99.90;;;;;;5014034;28;20176;-65
2021/04/20 07:30:24;;;;;;;30.43;23.60;;;15.00;99.90;;;;;;5013932;28;20179;-65
2021/04/20 07:33:09;;;;;;;33.37;23.90;;;15.10;99.90;;;;;;5014045;28;20347;-65
2021/04/20 07:35:37;;;;;;;34.07;23.23;;;15.20;99.90;;;;;;5014539;28;20180;-65
2021/04/20 07:38:32;;;;;;;35.50;26.77;;;15.40;99.90;;;;;;5012980;28;20199;-66
2021/04/20 07:41:12;;;;;;;31.43;25.07;;;15.80;99.90;;;;;;5011966;28;20323;-65
2021/04/20 07:44:00;;;;;;;35.80;25.17;;;15.90;99.90;;;;;;5013697;28;20594;-65
2021/04/20 07:46:52;;;;;;;27.57;22.97;;;16.10;99.90;;;;;;5012938;28;20216;-66
2021/04/20 07:50:00;;;;;;;32.17;25.20;;;16.50;99.90;;;;;;5013158;28;20205;-66
2021/04/20 07:52:40;;;;;;;32.17;25.10;;;16.30;99.90;;;;;;5013952;28;20325;-65
2021/04/20 07:55:05;;;;;;;33.10;24.60;;;16.70;99.90;;;;;;4994319;28;20176;-65
2021/04/20 07:57:46;;;;;;;40.10;27.13;;;17.00;99.90;;;;;;5012094;28;20242;-66
2021/04/20 08:00:16;;;;;;;36.53;28.43;;;17.30;99.90;;;;;;5013470;28;20192;-65
2021/04/20 08:03:02;;;;;;;34.17;27.17;;;17.50;99.90;;;;;;5013508;28;20200;-66
2021/04/20 08:05:35;;;;;;;34.03;24.60;;;17.80;99.90;;;;;;5013551;28;20259;-66
2021/04/20 08:08:06;;;;;;;27.93;23.80;;;18.30;99.90;;;;;;4994096;28;20177;-66
2021/04/20 08:10:42;;;;;;;28.98;24.23;;;18.70;99.90;;;;;;4993295;28;20185;-66
2021/04/20 08:13:18;;;;;;;29.55;23.27;;;19.30;99.90;;;;;;4993612;28;20239;-66
2021/04/20 08:15:53;;;;;;;32.33;25.85;;;19.50;99.90;;;;;;4995151;28;20550;-66
2021/04/20 08:18:34;;;;;;;34.90;25.75;;;19.90;99.90;;;;;;5013507;28;20187;-66
2021/04/20 08:21:02;;;;;;;32.90;25.70;;;20.10;99.90;;;;;;5011539;28;20206;-66
2021/04/20 08:23:29;;;;;;;33.40;26.98;;;20.10;99.90;;;;;;5012586;28;20211;-66
2021/04/20 08:25:59;;;;;;;36.03;27.42;;;19.80;99.90;;;;;;5013269;28;20562;-66
2021/04/20 08:28:38;;;;;;;34.30;27.27;;;19.80;99.90;;;;;;5012353;28;20259;-66
2021/04/20 08:31:07;;;;;;;34.92;27.25;;;20.10;99.90;;;;;;4994165;28;20212;-65
2021/04/20 08:33:37;;;;;;;39.85;28.60;;;20.30;99.90;;;;;;5012830;28;20617;-65
2021/04/20 08:36:09;;;;;;;43.88;29.50;;;20.00;99.90;;;;;;5013136;28;20184;-65
2021/04/20 08:38:42;;;;;;;38.60;29.15;;;20.00;99.90;;;;;;5013196;28;20226;-65
2021/04/20 08:41:22;;;;;;;41.22;29.80;;;20.20;99.90;;;;;;4992993;28;20232;-66
2021/04/20 08:44:19;;;;;;;35.42;28.33;;;20.20;99.90;;;;;;5002401;28;20228;-66
2021/04/20 08:47:15;;;;;;;37.40;29.10;;;20.50;99.90;;;;;;5013041;28;20176;-66
2021/04/20 08:50:00;;;;;;;36.22;27.92;;;20.70;99.90;;;;;;5000647;28;20621;-65
2021/04/20 08:52:50;;;;;;;30.27;25.05;;;20.50;99.90;;;;;;5012546;28;20223;-66
2021/04/20 08:55:34;;;;;;;35.10;26.58;;;20.80;99.90;;;;;;5012879;28;20566;-66
2021/04/20 08:58:07;;;;;;;31.50;26.45;;;21.30;99.90;;;;;;5012467;28;20203;-66
2021/04/20 09:00:32;;;;;;;41.53;27.40;;;21.60;99.90;;;;;;5011248;28;20212;-66
2021/04/20 09:03:18;;;;;;;32.75;27.15;;;22.10;99.90;;;;;;5012297;28;20247;-66
2021/04/20 09:06:04;;;;;;;37.65;28.23;;;22.10;99.90;;;;;;5012666;28;20191;-65
2021/04/20 09:08:46;;;;;;;36.30;26.67;;;22.50;99.90;;;;;;5012408;28;20202;-66
2021/04/20 09:11:23;;;;;;;32.95;25.70;;;22.90;99.90;;;;;;5012222;28;20180;-66
2021/04/20 09:14:11;;;;;;;35.35;26.40;;;23.00;99.90;;;;;;5012298;28;20207;-66
2021/04/20 09:16:45;;;;;;;31.63;25.30;;;23.00;99.90;;;;;;5012618;28;20180;-66
2021/04/20 09:19:49;;;;;;;32.33;25.30;;;23.10;99.90;;;;;;5012022;28;20601;-66
2021/04/20 09:25:04;;;;;;;31.48;23.58;;;22.80;99.90;;;;;;5114663;22;20356;-65
2021/04/20 09:28:03;;;;;;;28.42;22.30;;;23.00;99.90;;;;;;5070512;28;20194;-66
2021/04/20 09:30:35;;;;;;;28.27;20.98;;;22.90;99.90;;;;;;5073771;28;20192;-65
2021/04/20 09:33:18;;;;;;;27.85;22.15;;;22.80;99.90;;;;;;5071586;28;20198;-66
2021/04/20 09:35:45;;;;;;;26.67;22.90;;;22.90;99.90;;;;;;5063075;28;20644;-66
2021/04/20 09:38:13;;;;;;;26.85;21.20;;;23.20;99.90;;;;;;5051530;28;20171;-66
2021/04/20 09:40:42;;;;;;;26.73;21.85;;;23.50;99.90;;;;;;5057062;28;20706;-65
2021/04/20 09:43:23;;;;;;;27.25;21.48;;;23.80;99.90;;;;;;5071603;28;20196;-65
2021/04/20 09:46:08;;;;;;;22.58;19.60;;;23.90;99.90;;;;;;5064408;28;20744;-65
2021/04/20 09:48:44;;;;;;;22.27;19.33;;;23.80;99.90;;;;;;5071641;28;20170;-66
2021/04/20 09:51:25;;;;;;;23.08;18.75;;;23.80;99.90;;;;;;5061911;28;20185;-65
2021/04/20 09:54:26;;;;;;;26.95;19.42;;;24.10;99.90;;;;;;5051670;28;20222;-65
2021/04/20 09:56:58;;;;;;;19.83;16.85;;;24.10;99.90;;;;;;5049615;28;20190;-65
2021/04/20 09:59:25;;;;;;;19.80;16.50;;;23.80;99.90;;;;;;5070802;28;20174;-65
2021/04/20 10:02:13;;;;;;;21.80;17.50;;;23.80;99.90;;;;;;5057093;28;20198;-65
2021/04/20 10:04:41;;;;;;;19.25;15.88;;;23.70;99.90;;;;;;5053452;28;20194;-65
2021/04/20 10:07:34;;;;;;;16.67;14.38;;;23.40;99.90;;;;;;5066962;28;20206;-65
2021/04/20 10:10:38;;;;;;;13.57;12.07;;;23.50;99.90;;;;;;5072311;28;20265;-65
2021/04/20 10:13:28;;;;;;;15.15;12.88;;;23.70;99.90;;;;;;5031450;28;20191;-65
2021/04/20 10:16:21;;;;;;;19.23;13.65;;;24.40;99.90;;;;;;5065260;28;20190;-65
2021/04/20 10:19:11;;;;;;;14.45;12.85;;;24.90;99.90;;;;;;5071153;28;20176;-65
2021/04/20 10:21:46;;;;;;;16.98;14.43;;;25.10;99.90;;;;;;5031046;28;20561;-65
2021/04/20 10:24:19;;;;;;;16.08;13.20;;;25.60;99.90;;;;;;5034282;28;20333;-65
2021/04/20 10:26:54;;;;;;;14.48;12.50;;;25.50;99.90;;;;;;5071316;28;20178;-65
2021/04/20 10:29:40;;;;;;;15.18;12.95;;;25.20;99.90;;;;;;5068032;28;20188;-65
2021/04/20 10:32:15;;;;;;;15.90;13.30;;;25.20;99.90;;;;;;5050867;28;20202;-66
2021/04/20 10:34:50;;;;;;;14.98;12.10;;;25.40;99.90;;;;;;5055289;28;20181;-66
2021/04/20 10:37:18;;;;;;;13.25;11.23;;;25.30;99.90;;;;;;5071114;28;20173;-66
2021/04/20 10:39:51;;;;;;;13.20;10.90;;;25.70;99.90;;;;;;5067804;28;20770;-66
2021/04/20 10:42:28;;;;;;;18.35;15.65;;;26.00;99.90;;;;;;5031148;28;20176;-65
2021/04/20 10:44:56;;;;;;;15.02;13.35;;;25.90;99.90;;;;;;5031162;28;20260;-65
2021/04/20 10:47:23;;;;;;;7.32;6.60;;;26.70;99.90;;;;;;5031031;28;20515;-66
2021/04/20 10:49:58;;;;;;;7.90;7.00;;;26.70;98.20;;;;;;5069793;28;20170;-65
2021/04/20 10:52:28;;;;;;;8.50;7.32;;;26.50;95.30;;;;;;5070949;28;20189;-65
2021/04/20 10:54:58;;;;;;;7.28;6.57;;;26.60;96.10;;;;;;5051213;28;20195;-65
2021/04/20 10:57:28;;;;;;;6.80;6.10;;;27.20;96.10;;;;;;5050687;28;20695;-65
2021/04/20 10:59:54;;;;;;;8.35;7.50;;;27.80;96.80;;;;;;5069327;28;20182;-65
2021/04/20 11:02:28;;;;;;;10.70;8.85;;;28.40;95.00;;;;;;5070592;28;20208;-65
2021/04/20 11:04:55;;;;;;;8.70;7.90;;;28.20;94.20;;;;;;5051362;28;20237;-65
2021/04/20 11:07:29;;;;;;;9.57;8.57;;;27.60;90.90;;;;;;5050898;28;20220;-65
2021/04/20 11:10:08;;;;;;;8.57;7.78;;;27.30;90.70;;;;;;5068364;28;20188;-66
2021/04/20 11:12:43;;;;;;;9.45;8.40;;;27.60;93.50;;;;;;5073109;28;20635;-65
2021/04/20 11:15:20;;;;;;;10.27;9.23;;;27.90;92.50;;;;;;5054593;28;20703;-65
2021/04/20 11:17:55;;;;;;;10.93;9.82;;;27.90;91.70;;;;;;5054270;28;20252;-65
2021/04/20 11:20:26;;;;;;;11.10;9.93;;;27.00;91.10;;;;;;5034226;28;20658;-66
2021/04/20 11:23:09;;;;;;;9.85;8.85;;;27.00;90.80;;;;;;5034440;28;20302;-64
2021/04/20 11:25:43;;;;;;;11.45;8.52;;;26.80;90.80;;;;;;5034313;28;20664;-64
2021/04/20 11:28:41;;;;;;;10.98;9.18;;;26.40;92.00;;;;;;5035877;28;20214;-64
2021/04/20 11:31:10;;;;;;;11.68;10.48;;;26.50;91.50;;;;;;5070291;28;20269;-64
2021/04/20 11:33:54;;;;;;;13.13;9.98;;;26.30;91.10;;;;;;5069318;28;20199;-64
2021/04/20 11:36:27;;;;;;;10.93;9.82;;;26.30;90.70;;;;;;5057789;28;20580;-63
2021/04/20 11:38:56;;;;;;;11.57;9.65;;;26.10;88.10;;;;;;5073476;28;20171;-63
2021/04/20 11:41:28;;;;;;;12.27;9.98;;;26.30;90.30;;;;;;5068516;28;20203;-63
2021/04/20 11:44:00;;;;;;;10.40;9.30;;;26.70;88.50;;;;;;5054148;28;20599;-64
2021/04/20 11:46:32;;;;;;;12.77;11.45;;;26.90;91.10;;;;;;5057206;28;20170;-64
2021/04/20 11:49:20;;;;;;;13.05;11.65;;;26.70;90.10;;;;;;5073997;28;20173;-64
2021/04/20 11:51:47;;;;;;;11.63;10.52;;;26.40;89.50;;;;;;5067300;28;20240;-64
2021/04/20 11:54:25;;;;;;;13.27;9.65;;;26.00;91.50;;;;;;5053722;28;20199;-64
2021/04/20 11:56:52;;;;;;;12.65;9.63;;;26.10;91.80;;;;;;5059542;28;20205;-63
2021/04/20 11:59:19;;;;;;;12.55;9.63;;;25.90;86.40;;;;;;5056820;28;20185;-64
2021/04/20 12:01:48;;;;;;;10.13;9.05;;;25.70;88.50;;;;;;5056259;28;20587;-65
2021/04/20 12:04:15;;;;;;;9.45;8.43;;;25.80;91.20;;;;;;5070925;28;20614;-65
2021/04/20 12:06:49;;;;;;;11.35;10.15;;;26.10;90.20;;;;;;5053578;28;20162;-65
2021/04/20 12:09:39;;;;;;;11.68;9.07;;;26.10;85.60;;;;;;5054741;28;20249;-65
2021/04/20 12:12:06;;;;;;;11.13;9.02;;;26.10;90.50;;;;;;5072991;28;20197;-65
2021/04/20 12:14:40;;;;;;;12.50;9.88;;;26.30;87.00;;;;;;5069235;28;20294;-65
2021/04/20 12:17:06;;;;;;;12.85;10.30;;;26.20;87.20;;;;;;5053215;28;20179;-64
2021/04/20 12:19:33;;;;;;;10.27;9.18;;;26.20;87.00;;;;;;5068977;28;20186;-65
2021/04/20 12:22:02;;;;;;;10.68;9.32;;;25.80;84.60;;;;;;5072797;28;20202;-65
2021/04/20 12:24:29;;;;;;;10.88;9.05;;;25.40;84.10;;;;;;5056890;28;20211;-65
2021/04/20 12:26:58;;;;;;;12.55;9.63;;;25.50;89.70;;;;;;5053019;28;20656;-65
2021/04/20 12:29:27;;;;;;;11.02;9.48;;;25.60;87.60;;;;;;5066794;28;20185;-65
2021/04/20 12:31:53;;;;;;;10.38;9.27;;;25.80;82.70;;;;;;5072803;28;20240;-65
2021/04/20 12:34:27;;;;;;;9.55;8.13;;;25.70;82.30;;;;;;5054142;28;20830;-64
2021/04/20 12:36:54;;;;;;;9.52;8.43;;;25.60;85.80;;;;;;5052986;28;20257;-65
2021/04/20 12:39:47;;;;;;;8.90;8.00;;;25.80;82.50;;;;;;5070617;28;20235;-65
2021/04/20 12:42:17;;;;;;;9.52;8.50;;;26.10;83.60;;;;;;5064198;28;20186;-65
2021/04/20 12:44:47;;;;;;;10.05;7.50;;;26.50;82.40;;;;;;5052780;28;20226;-65
2021/04/20 12:47:15;;;;;;;8.50;7.57;;;26.30;83.90;;;;;;5059194;28;20544;-65
2021/04/20 12:49:46;;;;;;;8.88;8.00;;;26.90;83.70;;;;;;5072656;28;20170;-65
2021/04/20 12:52:16;;;;;;;8.95;8.05;;;27.50;79.90;;;;;;5064193;28;20190;-65
2021/04/20 12:54:45;;;;;;;8.85;7.95;;;27.50;77.90;;;;;;5051300;28;20676;-66
2021/04/20 12:57:16;;;;;;;8.77;7.85;;;27.80;86.00;;;;;;5058962;28;20174;-65
2021/04/20 12:59:48;;;;;;;9.70;7.63;;;28.40;78.70;;;;;;5072129;28;20697;-66